Time;durP1;ratioP1;P1;durP2;ratioP2;P2;SDS_P1;SDS_P2;PMS_P1;PMS_P2;Temp;Humidity;BMP_temperature;BMP_pressure;BME280_temperature;BME280_humidity;BME280_pressure;Samples;Min_cycle;Max_cycle;Signal;HPM_P1;HPM_P2
2023/05/07 00:01:49;;;;;;;;;;;;;;;19.20;87.24;99590.69;5103956;28;19922;-78
2023/05/07 00:04:15;;;;;;;;;;;;;;;19.27;86.51;99600.59;5104465;28;20014;-81
2023/05/07 00:06:40;;;;;;;;;;;;;;;19.17;88.05;99593.78;5101896;28;20011;-81
2023/05/07 00:09:06;;;;;;;;;;;;;;;19.19;87.81;99596.25;5102461;28;20034;-81
2023/05/07 00:11:32;;;;;;;;;;;;;;;19.02;89.68;99598.44;5104337;28;20868;-81
2023/05/07 00:13:58;;;;;;;;;;;;;;;18.93;89.91;99588.88;5101109;28;19977;-82
2023/05/07 00:16:23;;;;;;;;;;;;;;;18.90;90.50;99591.97;5103351;28;20383;-82
2023/05/07 00:18:49;;;;;;;;;;;;;;;18.85;89.81;99591.69;5106351;28;19927;-82
2023/05/07 00:21:14;;;;;;;;;;;;;;;18.72;91.12;99586.28;5100318;28;20383;-82
2023/05/07 00:23:39;;;;;;;;;;;;;;;18.80;90.17;99584.25;5103279;28;19966;-82
2023/05/07 00:26:05;;;;;;;;;;;;;;;18.70;90.15;99589.13;5100010;28;19926;-81
2023/05/07 00:28:30;;;;;;;;;;;;;;;18.78;89.15;99602.38;5099972;28;19930;-81
2023/05/07 00:30:55;;;;;;;;;;;;;;;18.74;88.73;99605.59;5101613;28;19920;-81
2023/05/07 00:33:22;;;;;;;;;;;;;;;18.65;89.71;99617.47;5103250;28;19931;-82
2023/05/07 00:35:47;;;;;;;;;;;;;;;18.62;89.58;99623.19;5100141;28;19920;-82
2023/05/07 00:38:13;;;;;;;;;;;;;;;18.65;90.03;99614.78;5102735;28;19920;-83
2023/05/07 00:40:38;;;;;;;;;;;;;;;18.62;90.08;99609.81;5102711;28;19919;-83
2023/05/07 00:43:03;;;;;;;;;;;;;;;18.64;89.70;99613.13;5100523;28;19923;-81
2023/05/07 00:45:29;;;;;;;;;;;;;;;18.55;91.51;99606.28;5098334;28;19959;-81
2023/05/07 00:48:00;;;;;;;;;;;;;;;18.57;91.16;99598.88;5097176;28;19927;-81
2023/05/07 00:50:26;;;;;;;;;;;;;;;18.56;92.40;99602.56;5100306;28;20447;-79
2023/05/07 00:52:51;;;;;;;;;;;;;;;18.54;93.06;99601.94;5102763;28;20288;-79
2023/05/07 00:55:17;;;;;;;;;;;;;;;18.52;93.84;99601.28;5099650;28;19930;-79
2023/05/07 00:57:43;;;;;;;;;;;;;;;18.49;94.00;99597.16;5099526;28;19920;-80
2023/05/07 01:00:09;;;;;;;;;;;;;;;18.50;93.90;99603.31;5101644;28;19934;-79
2023/05/07 01:02:39;;;;;;;;;;;;;;;18.40;94.80;99609.00;5097741;28;20028;-80
2023/05/07 01:05:05;;;;;;;;;;;;;;;18.30;95.44;99608.50;5094143;28;20787;-79
2023/05/07 01:07:31;;;;;;;;;;;;;;;18.36;95.17;99613.06;5102005;28;19931;-77
2023/05/07 01:09:57;;;;;;;;;;;;;;;18.31;94.92;99621.66;5100134;28;19920;-79
2023/05/07 01:12:23;;;;;;;;;;;;;;;18.24;95.49;99610.09;5103547;28;19920;-79
2023/05/07 01:14:49;;;;;;;;;;;;;;;18.18;96.05;99608.16;5099151;28;20011;-79
2023/05/07 01:17:15;;;;;;;;;;;;;;;18.13;96.73;99602.56;5120436;28;20405;-79
2023/05/07 01:19:41;;;;;;;;;;;;;;;18.11;96.95;99609.13;5113868;28;20335;-77
2023/05/07 01:22:08;;;;;;;;;;;;;;;18.05;97.57;99610.69;5100580;28;19927;-77
2023/05/07 01:24:42;;;;;;;;;;;;;;;18.13;96.65;99623.13;5094814;28;19928;-79
2023/05/07 01:27:07;;;;;;;;;;;;;;;18.19;96.10;99625.03;5102375;28;20025;-79
2023/05/07 01:29:34;;;;;;;;;;;;;;;18.15;95.63;99629.91;5094062;28;19924;-77
2023/05/07 01:32:00;;;;;;;;;;;;;;;18.17;95.29;99627.88;5102203;28;20394;-79
2023/05/07 01:34:28;;;;;;;;;;;;;;;18.09;96.30;99617.31;5100431;28;19959;-80
2023/05/07 01:36:55;;;;;;;;;;;;;;;18.12;95.18;99616.94;5103064;28;20359;-79
2023/05/07 01:39:22;;;;;;;;;;;;;;;18.15;94.69;99611.19;5102084;28;19919;-79
2023/05/07 01:41:48;;;;;;;;;;;;;;;18.16;94.34;99614.72;5102150;28;19930;-78
2023/05/07 01:44:15;;;;;;;;;;;;;;;18.15;94.71;99616.53;5096229;28;19927;-78
2023/05/07 01:46:40;;;;;;;;;;;;;;;18.08;94.42;99607.66;5102354;28;19927;-80
2023/05/07 01:49:05;;;;;;;;;;;;;;;18.17;93.65;99597.66;5100877;28;20287;-79
2023/05/07 01:51:31;;;;;;;;;;;;;;;18.16;93.48;99598.69;5102948;28;19924;-79
2023/05/07 01:53:57;;;;;;;;;;;;;;;18.09;94.75;99611.13;5101140;28;19923;-79
2023/05/07 01:56:23;;;;;;;;;;;;;;;18.12;94.49;99608.09;5101723;28;19919;-79
2023/05/07 01:58:51;;;;;;;;;;;;;;;18.12;95.02;99613.44;5100293;28;19942;-79
2023/05/07 02:01:16;;;;;;;;;;;;;;;18.15;95.08;99605.88;5100374;28;19981;-80
2023/05/07 02:03:42;;;;;;;;;;;;;;;18.17;94.98;99619.88;5097537;28;19926;-78
2023/05/07 02:06:14;;;;;;;;;;;;;;;18.12;96.25;99624.13;5101399;28;19923;-78
2023/05/07 02:08:40;;;;;;;;;;;;;;;18.16;96.04;99628.88;5099194;28;20007;-76
2023/05/07 02:11:05;;;;;;;;;;;;;;;18.12;96.91;99624.94;5100512;28;19926;-79
2023/05/07 02:13:32;;;;;;;;;;;;;;;18.03;98.81;99634.06;5101474;28;19935;-78
2023/05/07 02:15:58;;;;;;;;;;;;;;;18.08;98.45;99642.38;5099203;28;19920;-78
2023/05/07 02:18:24;;;;;;;;;;;;;;;18.05;99.20;99650.75;5101681;28;19920;-78
2023/05/07 02:20:50;;;;;;;;;;;;;;;18.02;100.00;99650.31;5099835;28;19957;-77
2023/05/07 02:23:15;;;;;;;;;;;;;;;17.87;100.00;99655.66;5096404;28;20583;-78
2023/05/07 02:25:41;;;;;;;;;;;;;;;17.94;100.00;99664.59;5100678;28;19930;-78
2023/05/07 02:28:06;;;;;;;;;;;;;;;17.99;100.00;99662.19;5081200;28;20314;-78
2023/05/07 02:30:49;;;;;;;;;;;;;;;17.92;100.00;99664.78;5096845;28;19920;-79
2023/05/07 02:33:15;;;;;;;;;;;;;;;17.83;100.00;99668.56;5098235;28;19920;-80
2023/05/07 02:35:41;;;;;;;;;;;;;;;17.86;100.00;99662.03;5098018;28;19931;-80
2023/05/07 02:38:07;;;;;;;;;;;;;;;17.83;100.00;99662.41;5101932;28;20022;-81
2023/05/07 02:40:33;;;;;;;;;;;;;;;17.82;100.00;99652.75;5097757;28;19954;-82
2023/05/07 02:42:59;;;;;;;;;;;;;;;17.87;100.00;99653.00;5098595;28;19932;-80
2023/05/07 02:45:25;;;;;;;;;;;;;;;17.85;100.00;99647.84;5097148;28;20371;-81
2023/05/07 02:47:52;;;;;;;;;;;;;;;17.79;100.00;99653.13;5100678;28;19928;-81
2023/05/07 02:50:17;;;;;;;;;;;;;;;17.79;100.00;99647.78;5081066;28;20302;-79
2023/05/07 02:52:43;;;;;;;;;;;;;;;17.76;100.00;99646.31;5103408;28;20322;-80
2023/05/07 02:55:08;;;;;;;;;;;;;;;17.73;100.00;99648.53;5098939;28;20451;-79
2023/05/07 02:57:34;;;;;;;;;;;;;;;17.76;100.00;99648.16;5101189;28;19924;-80
2023/05/07 03:00:09;;;;;;;;;;;;;;;17.70;100.00;99648.88;5097689;28;19943;-79
2023/05/07 03:02:35;;;;;;;;;;;;;;;17.66;100.00;99655.63;5097905;28;19923;-79
2023/05/07 03:05:01;;;;;;;;;;;;;;;17.65;100.00;99657.47;5099468;28;19930;-79
2023/05/07 03:07:26;;;;;;;;;;;;;;;17.63;100.00;99648.81;5083082;28;20582;-79
2023/05/07 03:09:53;;;;;;;;;;;;;;;17.56;100.00;99659.34;5098266;28;19967;-79
2023/05/07 03:12:19;;;;;;;;;;;;;;;17.60;100.00;99657.19;5104151;28;19943;-79
2023/05/07 03:14:44;;;;;;;;;;;;;;;17.61;100.00;99652.69;5103056;28;19916;-80
2023/05/07 03:17:09;;;;;;;;;;;;;;;17.57;100.00;99666.34;5103302;28;19919;-78
2023/05/07 03:19:35;;;;;;;;;;;;;;;17.61;100.00;99655.34;5100565;28;20030;-79
2023/05/07 03:22:00;;;;;;;;;;;;;;;17.56;100.00;99664.69;5101831;28;20350;-79
2023/05/07 03:24:26;;;;;;;;;;;;;;;17.55;100.00;99663.03;5102993;28;20018;-79
2023/05/07 03:26:51;;;;;;;;;;;;;;;17.20;100.00;99669.09;5105678;28;19966;-81
2023/05/07 03:29:16;;;;;;;;;;;;;;;17.18;100.00;99665.78;5101304;28;20299;-80
2023/05/07 03:31:42;;;;;;;;;;;;;;;17.19;100.00;99662.13;5105351;28;19973;-79
2023/05/07 03:34:07;;;;;;;;;;;;;;;17.20;100.00;99653.91;5102080;28;19920;-78
2023/05/07 03:36:32;;;;;;;;;;;;;;;17.15;100.00;99653.63;5102896;28;20014;-79
2023/05/07 03:38:58;;;;;;;;;;;;;;;17.15;100.00;99650.16;5100453;28;20233;-79
2023/05/07 03:41:29;;;;;;;;;;;;;;;17.16;100.00;99641.13;5101028;28;19939;-81
2023/05/07 03:43:54;;;;;;;;;;;;;;;17.22;100.00;99651.06;5100640;28;19920;-80
2023/05/07 03:46:20;;;;;;;;;;;;;;;17.28;100.00;99658.34;5139691;27;19969;-79
2023/05/07 03:48:46;;;;;;;;;;;;;;;17.18;100.00;99658.63;5101793;28;19962;-79
2023/05/07 03:51:13;;;;;;;;;;;;;;;17.20;100.00;99653.09;5103918;28;19931;-81
2023/05/07 03:53:38;;;;;;;;;;;;;;;17.25;100.00;99650.72;5105290;28;19919;-81
2023/05/07 03:56:04;;;;;;;;;;;;;;;17.20;100.00;99653.91;5099607;28;19955;-80
2023/05/07 03:58:34;;;;;;;;;;;;;;;17.17;100.00;99653.47;5102873;28;19946;-81
2023/05/07 04:01:04;;;;;;;;;;;;;;;17.14;100.00;99659.97;5104404;28;19998;-81
2023/05/07 04:03:29;;;;;;;;;;;;;;;17.13;100.00;99668.19;5100971;28;19920;-82
2023/05/07 04:05:57;;;;;;;;;;;;;;;17.21;100.00;99665.41;5134392;27;20003;-81
2023/05/07 04:08:23;;;;;;;;;;;;;;;17.25;100.00;99669.41;5101372;28;20336;-79
2023/05/07 04:10:55;;;;;;;;;;;;;;;17.29;100.00;99673.34;5102774;28;20006;-79
2023/05/07 04:13:21;;;;;;;;;;;;;;;17.30;100.00;99675.00;5105624;28;20018;-80
2023/05/07 04:15:48;;;;;;;;;;;;;;;17.18;100.00;99668.47;5100934;28;20034;-79
2023/05/07 04:18:16;;;;;;;;;;;;;;;17.21;100.00;99665.41;5102248;28;20021;-79
2023/05/07 04:20:43;;;;;;;;;;;;;;;17.23;100.00;99679.41;5103024;28;20022;-80
2023/05/07 04:23:11;;;;;;;;;;;;;;;17.16;100.00;99673.13;5098964;28;19924;-81
2023/05/07 04:25:37;;;;;;;;;;;;;;;17.21;100.00;99670.75;5120198;27;19982;-80
2023/05/07 04:28:09;;;;;;;;;;;;;;;17.23;100.00;99678.56;5097014;28;19923;-81
2023/05/07 04:30:35;;;;;;;;;;;;;;;17.20;100.00;99679.75;5102508;28;20299;-81
2023/05/07 04:33:02;;;;;;;;;;;;;;;17.23;100.00;99676.75;5103154;28;19920;-80
2023/05/07 04:35:29;;;;;;;;;;;;;;;17.23;100.00;99684.75;5133858;27;20324;-80
2023/05/07 04:37:55;;;;;;;;;;;;;;;17.26;100.00;99683.56;5104959;28;19947;-79
2023/05/07 04:40:20;;;;;;;;;;;;;;;17.31;100.00;99687.34;5102687;28;20368;-79
2023/05/07 04:42:45;;;;;;;;;;;;;;;17.27;100.00;99690.53;5101389;28;19927;-79
2023/05/07 04:45:12;;;;;;;;;;;;;;;17.27;100.00;99702.03;5099522;28;19924;-75
2023/05/07 04:47:39;;;;;;;;;;;;;;;17.31;100.00;99700.66;5113978;28;19924;-79
2023/05/07 04:50:06;;;;;;;;;;;;;;;17.31;100.00;99702.50;5115070;28;19924;-79
2023/05/07 04:52:32;;;;;;;;;;;;;;;17.34;100.00;99708.28;5112132;28;19931;-78
2023/05/07 04:55:01;;;;;;;;;;;;;;;17.28;100.00;99705.53;5102076;28;19920;-78
2023/05/07 04:57:32;;;;;;;;;;;;;;;17.31;100.00;99719.34;5104170;28;19924;-79
2023/05/07 04:59:57;;;;;;;;;;;;;;;17.29;100.00;99726.69;5100327;28;19946;-76
2023/05/07 05:02:23;;;;;;;;;;;;;;;17.27;100.00;99728.69;5100895;28;19920;-79
2023/05/07 05:04:48;;;;;;;;;;;;;;;17.30;100.00;99733.69;5102788;28;19924;-79
2023/05/07 05:07:14;;;;;;;;;;;;;;;17.34;100.00;99737.63;5099065;28;19920;-78
2023/05/07 05:09:40;;;;;;;;;;;;;;;17.34;100.00;99750.13;5102697;28;19920;-79
2023/05/07 05:12:07;;;;;;;;;;;;;;;17.21;100.00;99756.09;5102203;28;20386;-77
2023/05/07 05:14:34;;;;;;;;;;;;;;;17.20;100.00;99765.09;5094562;28;20228;-77
2023/05/07 05:16:59;;;;;;;;;;;;;;;17.20;100.00;99775.75;5101690;28;19927;-79
2023/05/07 05:19:25;;;;;;;;;;;;;;;17.22;100.00;99779.09;5101815;28;19928;-79
2023/05/07 05:21:50;;;;;;;;;;;;;;;17.20;100.00;99781.09;5101630;28;19975;-79
2023/05/07 05:24:16;;;;;;;;;;;;;;;17.18;100.00;99777.78;5101784;28;19924;-78
2023/05/07 05:26:42;;;;;;;;;;;;;;;17.04;100.00;99787.38;5101911;28;19995;-79
2023/05/07 05:29:07;;;;;;;;;;;;;;;17.10;100.00;99785.84;5101196;28;19927;-78
2023/05/07 05:31:33;;;;;;;;;;;;;;;17.14;100.00;99784.50;5100349;28;19923;-78
2023/05/07 05:33:59;;;;;;;;;;;;;;;17.14;100.00;99793.31;5098934;28;19974;-77
2023/05/07 05:36:24;;;;;;;;;;;;;;;17.14;100.00;99797.84;5099795;28;20423;-77
2023/05/07 05:38:52;;;;;;;;;;;;;;;17.04;100.00;99795.38;5101086;28;19924;-78
2023/05/07 05:41:18;;;;;;;;;;;;;;;17.13;100.00;99791.66;5098570;28;19924;-78
2023/05/07 05:43:44;;;;;;;;;;;;;;;17.10;100.00;99793.84;5099974;28;19922;-79
2023/05/07 05:46:11;;;;;;;;;;;;;;;17.14;100.00;99790.63;5100738;28;20086;-78
2023/05/07 05:48:37;;;;;;;;;;;;;;;17.10;100.00;99785.84;5099285;28;19973;-79
2023/05/07 05:51:03;;;;;;;;;;;;;;;17.19;100.00;99782.94;5098372;28;19976;-78
2023/05/07 05:53:29;;;;;;;;;;;;;;;17.20;100.00;99775.75;5101724;28;19957;-80
2023/05/07 05:55:54;;;;;;;;;;;;;;;17.10;100.00;99765.34;5099366;28;19920;-79
2023/05/07 05:58:20;;;;;;;;;;;;;;;17.26;100.00;99775.03;5099965;28;19924;-80
2023/05/07 06:00:52;;;;;;;;;;;;;;;17.24;100.00;99782.41;5101378;28;20524;-81
2023/05/07 06:03:19;;;;;;;;;;;;;;;17.44;100.00;99785.38;5099341;28;19929;-81
2023/05/07 06:05:44;;;;;;;;;;;;;;;17.61;100.00;99786.09;5103930;28;19920;-81
2023/05/07 06:08:10;;;;;;;;;;;;;;;17.81;100.00;99784.53;5098394;28;20026;-80
2023/05/07 06:10:36;;;;;;;;;;;;;;;17.90;100.00;99783.47;5098579;28;20390;-80
2023/05/07 06:13:04;;;;;;;;;;;;;;;17.95;100.00;99781.06;5100663;28;19946;-79
2023/05/07 06:15:30;;;;;;;;;;;;;;;18.06;99.59;99780.59;5098834;28;20319;-81
2023/05/07 06:18:01;;;;;;;;;;;;;;;18.13;99.50;99778.84;5099687;28;19920;-78
2023/05/07 06:20:26;;;;;;;;;;;;;;;18.15;99.44;99787.47;5101270;28;19920;-79
2023/05/07 06:22:52;;;;;;;;;;;;;;;18.23;97.18;99790.06;5096783;28;20379;-79
2023/05/07 06:25:17;;;;;;;;;;;;;;;18.30;96.21;99793.66;5100546;28;19920;-79
2023/05/07 06:27:43;;;;;;;;;;;;;;;18.39;95.80;99795.19;5101429;28;19927;-80
2023/05/07 06:30:08;;;;;;;;;;;;;;;18.45;95.29;99792.78;5099118;28;19999;-80
2023/05/07 06:32:34;;;;;;;;;;;;;;;18.46;94.66;99781.06;5100042;28;19930;-81
2023/05/07 06:34:59;;;;;;;;;;;;;;;18.43;93.51;99782.28;5100872;28;19947;-81
2023/05/07 06:37:26;;;;;;;;;;;;;;;18.47;93.23;99785.41;5099588;28;20026;-81
2023/05/07 06:40:01;;;;;;;;;;;;;;;18.50;93.36;99780.50;5085687;28;20415;-80
2023/05/07 06:42:29;;;;;;;;;;;;;;;18.50;93.47;99785.00;5101878;28;19938;-83
2023/05/07 06:44:59;;;;;;;;;;;;;;;18.62;93.53;99784.38;5134047;27;19926;-82
2023/05/07 06:47:25;;;;;;;;;;;;;;;18.65;93.29;99784.00;5096743;28;19924;-81
2023/05/07 06:49:53;;;;;;;;;;;;;;;18.64;92.71;99781.53;5097769;28;19923;-80
2023/05/07 06:52:21;;;;;;;;;;;;;;;18.66;92.98;99784.84;5101006;28;19924;-80
2023/05/07 06:54:49;;;;;;;;;;;;;;;18.78;92.46;99783.31;5091036;28;19920;-80
2023/05/07 06:57:16;;;;;;;;;;;;;;;18.90;92.27;99787.16;5132196;27;19927;-82
2023/05/07 06:59:41;;;;;;;;;;;;;;;18.97;91.95;99782.69;5095072;28;19924;-80
2023/05/07 07:02:08;;;;;;;;;;;;;;;18.95;91.98;99783.91;5097942;28;20006;-82
2023/05/07 07:04:34;;;;;;;;;;;;;;;18.96;92.28;99786.41;5102038;28;19931;-77
2023/05/07 07:07:04;;;;;;;;;;;;;;;18.88;93.33;99788.34;5097074;28;19920;-82
2023/05/07 07:09:29;;;;;;;;;;;;;;;18.84;94.15;99792.44;5091251;28;19931;-77
2023/05/07 07:11:55;;;;;;;;;;;;;;;18.89;94.30;99792.69;5096992;28;19921;-79
2023/05/07 07:14:23;;;;;;;;;;;;;;;18.66;95.07;99795.53;5097079;28;19927;-79
2023/05/07 07:16:50;;;;;;;;;;;;;;;18.55;95.78;99788.00;5092154;28;19943;-80
2023/05/07 07:19:17;;;;;;;;;;;;;;;18.64;95.88;99797.56;5096693;28;19920;-79
2023/05/07 07:21:44;;;;;;;;;;;;;;;18.66;96.59;99790.19;5092626;28;19952;-80
2023/05/07 07:24:18;;;;;;;;;;;;;;;18.81;95.89;99793.63;5098411;28;19924;-81
2023/05/07 07:26:45;;;;;;;;;;;;;;;18.91;96.23;99793.34;5098828;28;19965;-79
2023/05/07 07:29:10;;;;;;;;;;;;;;;18.62;97.82;99789.72;5096373;28;20256;-77
2023/05/07 07:31:35;;;;;;;;;;;;;;;18.69;97.33;99784.44;5095400;28;20015;-79
2023/05/07 07:34:01;;;;;;;;;;;;;;;18.56;97.76;99786.97;5097912;28;20022;-79
2023/05/07 07:36:26;;;;;;;;;;;;;;;18.68;97.18;99782.78;5102623;28;19923;-80
2023/05/07 07:38:53;;;;;;;;;;;;;;;18.72;97.23;99781.41;5100782;28;19920;-79
2023/05/07 07:41:18;;;;;;;;;;;;;;;18.68;98.38;99777.44;5097616;28;19927;-78
2023/05/07 07:43:46;;;;;;;;;;;;;;;18.84;98.39;99781.75;5100640;28;19920;-79
2023/05/07 07:46:13;;;;;;;;;;;;;;;18.89;97.16;99785.50;5098139;28;19968;-79
2023/05/07 07:48:38;;;;;;;;;;;;;;;18.98;97.29;99784.34;5098570;28;20077;-79
2023/05/07 07:51:04;;;;;;;;;;;;;;;18.99;96.70;99780.66;5099367;28;19959;-79
2023/05/07 07:53:30;;;;;;;;;;;;;;;19.04;96.68;99783.56;5129805;27;19932;-79
2023/05/07 07:55:55;;;;;;;;;;;;;;;19.11;96.54;99781.78;5099524;28;19928;-81
2023/05/07 07:58:24;;;;;;;;;;;;;;;19.01;98.16;99778.63;5102978;28;19920;-79
2023/05/07 08:00:50;;;;;;;;;;;;;;;19.17;98.04;99766.81;5100437;28;20277;-80
2023/05/07 08:03:16;;;;;;;;;;;;;;;19.35;97.40;99774.38;5103291;28;20351;-80
2023/05/07 08:05:45;;;;;;;;;;;;;;;19.38;97.74;99774.00;5100257;28;19919;-78
2023/05/07 08:08:11;;;;;;;;;;;;;;;19.47;97.60;99767.50;5097880;28;20166;-76
2023/05/07 08:10:39;;;;;;;;;;;;;;;19.52;97.83;99775.78;5112422;27;19924;-76
2023/05/07 08:13:09;;;;;;;;;;;;;;;19.14;99.69;99768.03;5101650;28;19998;-79
2023/05/07 08:15:37;;;;;;;;;;;;;;;19.27;100.00;99771.81;5103449;28;19919;-77
2023/05/07 08:18:03;;;;;;;;;;;;;;;19.45;99.38;99769.50;5098746;28;19919;-77
2023/05/07 08:20:29;;;;;;;;;;;;;;;19.47;99.79;99775.53;5096737;28;19928;-80
2023/05/07 08:22:55;;;;;;;;;;;;;;;19.51;99.59;99768.75;5094384;28;20061;-85
2023/05/07 08:25:21;;;;;;;;;;;;;;;19.53;99.45;99774.75;5095560;28;20007;-81
2023/05/07 08:27:46;;;;;;;;;;;;;;;19.57;98.21;99774.16;5100515;28;20367;-80
2023/05/07 08:30:12;;;;;;;;;;;;;;;19.58;98.86;99775.00;5102694;28;20324;-80
2023/05/07 08:32:37;;;;;;;;;;;;;;;19.62;98.91;99770.88;5103171;28;19927;-82
2023/05/07 08:35:03;;;;;;;;;;;;;;;19.80;97.62;99778.41;5100074;28;19945;-85
2023/05/07 08:37:28;;;;;;;;;;;;;;;19.98;96.78;99771.53;5100867;28;20379;-79
2023/05/07 08:39:54;;;;;;;;;;;;;;;20.12;97.39;99777.78;5103843;28;20016;-78
2023/05/07 08:42:23;;;;;;;;;;;;;;;20.11;94.34;99776.13;5101126;28;20438;-79
2023/05/07 08:44:52;;;;;;;;;;;;;;;20.10;92.31;99779.00;5102465;28;20371;-78
2023/05/07 08:47:19;;;;;;;;;;;;;;;20.24;89.58;99772.69;5100369;28;19978;-78
2023/05/07 08:49:45;;;;;;;;;;;;;;;20.42;90.89;99767.66;5103128;28;20384;-79
2023/05/07 08:52:12;;;;;;;;;;;;;;;20.61;89.79;99780.28;5099405;28;19927;-79
2023/05/07 08:54:38;;;;;;;;;;;;;;;20.84;88.97;99772.72;5103230;28;19916;-79
2023/05/07 08:57:05;;;;;;;;;;;;;;;20.99;89.36;99769.00;5083064;28;19920;-78
2023/05/07 08:59:32;;;;;;;;;;;;;;;21.08;88.83;99767.78;5102760;28;19923;-79
2023/05/07 09:01:58;;;;;;;;;;;;;;;21.18;84.44;99768.22;5100212;28;20252;-80
2023/05/07 09:04:24;;;;;;;;;;;;;;;21.34;81.28;99766.97;5099019;28;20014;-78
2023/05/07 09:06:51;;;;;;;;;;;;;;;21.41;80.70;99757.91;5102333;28;19923;-77
2023/05/07 09:09:21;;;;;;;;;;;;;;;21.63;80.69;99759.31;5102823;28;20018;-80
2023/05/07 09:11:47;;;;;;;;;;;;;;;21.75;80.40;99755.97;5102209;28;20020;-79
2023/05/07 09:14:16;;;;;;;;;;;;;;;21.91;79.34;99752.88;5101677;28;19927;-79
2023/05/07 09:16:44;;;;;;;;;;;;;;;22.01;77.33;99758.66;5102646;28;19931;-80
2023/05/07 09:19:09;;;;;;;;;;;;;;;22.10;77.20;99754.69;5098911;28;19920;-80
2023/05/07 09:21:36;;;;;;;;;;;;;;;22.11;77.47;99759.03;5102483;28;20003;-79
2023/05/07 09:24:04;;;;;;;;;;;;;;;22.09;75.04;99757.59;5099514;28;19988;-79
2023/05/07 09:26:35;;;;;;;;;;;;;;;22.18;74.35;99764.38;5095286;28;19968;-80
2023/05/07 09:29:02;;;;;;;;;;;;;;;22.17;74.25;99752.78;5085720;28;20056;-79
2023/05/07 09:31:28;;;;;;;2.92;2.40;;;;;;;22.25;77.18;99755.25;5099082;28;20433;-79
2023/05/07 09:33:55;;;;;;;3.03;2.72;;;;;;;22.23;79.12;99751.13;5099405;28;20543;-79
2023/05/07 09:36:24;;;;;;;2.88;2.67;;;;;;;22.12;78.13;99749.94;5098249;28;20709;-80
2023/05/07 09:38:49;;;;;;;3.28;2.58;;;;;;;21.94;76.12;99753.25;5082050;28;20483;-78
2023/05/07 09:41:16;;;;;;;3.20;2.50;;;;;;;21.79;74.35;99749.19;5099980;28;20407;-80
2023/05/07 09:43:54;;;;;;;2.67;2.47;;;;;;;21.82;75.23;99743.38;5099642;28;20954;-80
2023/05/07 09:46:29;;;;;;;2.70;2.47;;;;;;;21.98;75.04;99745.63;5100750;28;20395;-79
2023/05/07 09:48:58;;;;;;;3.60;2.50;;;;;;;22.08;74.22;99747.88;5097680;28;20428;-79
2023/05/07 09:51:29;;;;;;;3.92;2.42;;;;;;;22.09;75.04;99744.97;5098996;28;20421;-78
2023/05/07 09:53:59;;;;;;;2.50;2.25;;;;;;;22.31;74.20;99732.06;5082586;28;20408;-78
2023/05/07 09:56:26;;;;;;;2.45;2.25;;;;;;;22.46;72.67;99736.13;5099757;28;20409;-79
2023/05/07 09:58:54;;;;;;;2.63;2.15;;;;;;;22.67;71.28;99739.53;5099614;28;20484;-80
2023/05/07 10:01:22;;;;;;;3.00;2.70;;;;;;;22.70;71.58;99720.25;5100790;28;20452;-79
2023/05/07 10:03:50;;;;;;;2.80;2.60;;;;;;;22.76;70.46;99735.56;5097922;28;20400;-80
2023/05/07 10:06:17;;;;;;;2.60;2.40;;;;;;;22.89;70.84;99721.19;5098151;28;20486;-80
2023/05/07 10:08:43;;;;;;;3.15;2.45;;;;;;;23.05;69.84;99718.78;5097061;28;20440;-79
2023/05/07 10:11:09;;;;;;;3.03;2.78;;;;;;;23.00;68.85;99721.31;5099863;28;20503;-80
2023/05/07 10:13:36;;;;;;;3.07;2.83;;;;;;;22.96;69.28;99709.34;5094053;28;20476;-79
2023/05/07 10:16:04;;;;;;;3.88;3.22;;;;;;;23.10;69.32;99705.47;5099841;28;20403;-79
2023/05/07 10:18:36;;;;;;;3.45;2.60;;;;;;;23.27;68.89;99714.66;5092305;28;20405;-79
2023/05/07 10:21:17;;;;;;;3.60;2.80;;;;;;;23.37;67.76;99705.25;5095353;28;20757;-79
2023/05/07 10:23:50;;;;;;;2.75;2.55;;;;;;;23.25;68.21;99705.16;5094960;28;20404;-79
2023/05/07 10:26:18;;;;;;;3.17;2.90;;;;;;;23.32;68.18;99707.78;5099063;28;20441;-80
2023/05/07 10:28:48;;;;;;;6.53;2.63;;;;;;;23.40;68.18;99699.41;5097206;28;20427;-80
2023/05/07 10:31:51;;;;;;;2.60;2.40;;;;;;;23.48;69.23;99691.09;5100971;28;20507;-80
2023/05/07 10:34:24;;;;;;;3.28;2.63;;;;;;;23.52;70.02;99692.28;5095602;28;20389;-79
2023/05/07 10:36:52;;;;;;;3.13;2.80;;;;;;;23.49;68.56;99693.56;5098948;28;20407;-79
2023/05/07 10:39:20;;;;;;;3.22;2.58;;;;;;;23.60;67.89;99689.31;5097482;28;20408;-80
2023/05/07 10:41:46;;;;;;;2.95;2.75;;;;;;;23.71;67.71;99680.47;5082683;28;20428;-80
2023/05/07 10:44:11;;;;;;;2.97;2.73;;;;;;;23.82;67.20;99677.03;5097934;28;20424;-80
2023/05/07 10:46:37;;;;;;;2.78;2.58;;;;;;;23.80;66.79;99681.00;5101400;28;20084;-79
2023/05/07 10:49:11;;;;;;;;;;;;;;;23.72;67.08;99682.13;5098034;28;20044;-79
2023/05/07 10:52:07;;;;;;;;;;;;;;;23.70;67.58;99672.59;5100774;28;19916;-80
2023/05/07 10:54:33;;;;;;;;;;;;;;;23.72;68.68;99674.03;5100928;28;19938;-79
2023/05/07 10:57:38;;;;;;;;;;;;;;;23.66;68.33;99669.56;5094187;28;19916;-79
2023/05/07 11:00:15;;;;;;;;;;;;;;;23.62;67.57;99679.13;5075307;28;19927;-80
2023/05/07 11:03:02;;;;;;;;;;;;;;;23.62;67.96;99666.47;5098681;28;19916;-80
2023/05/07 11:05:38;;;;;;;;;;;;;;;23.61;68.21;99664.00;5094159;28;19916;-80
2023/05/07 11:08:13;;;;;;;;;;;;;;;23.51;67.96;99669.06;5093828;28;19939;-79
2023/05/07 11:10:50;;;;;;;;;;;;;;;23.53;68.20;99667.81;5133530;27;19916;-80
2023/05/07 11:13:42;;;;;;;;;;;;;;;23.55;68.43;99667.59;5099198;28;20307;-80
2023/05/07 11:16:19;;;;;;;;;;;;;;;23.60;66.99;99657.81;5128372;27;19958;-80
2023/05/07 11:18:50;;;;;;;;;;;;;;;23.62;66.71;99654.91;5096186;28;19965;-79
2023/05/07 11:21:46;;;;;;;;;;;;;;;23.73;66.72;99659.53;5099661;28;19920;-80
2023/05/07 11:24:42;;;;;;;;;;;;;;;23.92;66.22;99653.03;5106831;28;19916;-78
2023/05/07 11:27:08;;;;;;;;;;;;;;;24.06;66.02;99651.84;5093992;28;19916;-80
2023/05/07 11:29:34;;;;;;;;;;;;;;;24.14;65.20;99647.19;5102421;28;19941;-80
2023/05/07 11:32:06;;;;;;;;;;;;;;;24.25;63.97;99649.13;5095089;28;19998;-80
2023/05/07 11:34:40;;;;;;;;;;;;;;;24.33;63.99;99640.69;5100995;28;20028;-78
2023/05/07 11:37:06;;;;;;;;;;;;;;;24.45;64.21;99638.88;5103137;28;19956;-80
2023/05/07 11:40:02;;;;;;;;;;;;;;;24.56;63.29;99640.78;5100112;28;20069;-78
2023/05/07 11:42:28;;;;;;;;;;;;;;;24.58;62.70;99648.63;5106293;28;19920;-79
2023/05/07 11:44:53;;;;;;;;;;;;;;;24.63;62.88;99641.50;5104137;28;19972;-80
2023/05/07 11:47:19;;;;;;;;;;;;;;;24.64;63.24;99648.53;5102337;28;19920;-78
2023/05/07 11:49:48;;;;;;;;;;;;;;;24.54;62.29;99653.69;5104852;28;20003;-78
2023/05/07 11:52:13;;;;;;;;;;;;;;;24.48;61.87;99649.22;5102421;28;20015;-77
2023/05/07 11:54:39;;;;;;;;;;;;;;;24.51;62.15;99648.72;5103884;28;19956;-78
2023/05/07 11:57:05;;;;;;;;;;;;;;;24.49;63.70;99650.84;5108509;28;19916;-78
2023/05/07 11:59:38;;;;;;;;;;;;;;;24.38;62.12;99648.94;5102431;28;19931;-79
2023/05/07 12:02:03;;;;;;;;;;;;;;;24.27;62.94;99647.03;5103397;28;19927;-79
2023/05/07 12:04:29;;;;;;;;;;;;;;;24.28;64.57;99637.88;5103756;28;19919;-79
2023/05/07 12:06:55;;;;;;;;;;;;;;;24.27;64.24;99642.44;5107265;28;19916;-79
2023/05/07 12:09:21;;;;;;;;;;;;;;;24.23;64.88;99641.25;5106352;28;19922;-79
2023/05/07 12:11:47;;;;;;;;;;;;;;;24.27;64.83;99649.75;5106511;28;19915;-79
2023/05/07 12:14:13;;;;;;;;;;;;;;;24.30;64.65;99647.41;5107883;28;19915;-78
2023/05/07 12:16:39;;;;;;;;;;;;;;;24.31;65.49;99648.22;5105269;28;19915;-79
2023/05/07 12:19:07;;;;;;;;;;;;;;;24.40;64.99;99646.81;5098101;28;19916;-78
2023/05/07 12:21:39;;;;;;;;;;;;;;;24.31;65.11;99642.81;5100169;28;19923;-78
2023/05/07 12:24:05;;;;;;;;;;;;;;;24.31;65.12;99643.66;5106314;28;20010;-79
2023/05/07 12:26:30;;;;;;;;;;;;;;;24.39;64.93;99637.09;5102751;28;19997;-78
2023/05/07 12:28:57;;;;;;;;;;;;;;;24.40;64.20;99642.25;5104784;28;19920;-79
2023/05/07 12:31:22;;;;;;;;;;;;;;;24.42;64.23;99639.34;5103494;28;19966;-79
2023/05/07 12:33:47;;;;;;;;;;;;;;;24.50;64.32;99630.09;5103180;28;19967;-79
2023/05/07 12:36:13;;;;;;;;;;;;;;;24.57;64.38;99628.94;5104580;28;19938;-79
2023/05/07 12:38:40;;;;;;;;;;;;;;;24.53;63.46;99625.06;5102229;28;20002;-79